createdAt,value
2018-02-10T00:00:23.611Z,101019.44
2018-02-10T00:02:51.976Z,101018.19
2018-02-10T00:05:20.292Z,101022.18
2018-02-10T00:07:48.661Z,101024.34
2018-02-10T00:10:17.004Z,101027.80
2018-02-10T00:12:45.392Z,101026.67
2018-02-10T00:15:13.748Z,101027.84
2018-02-10T00:17:42.863Z,101018.03
2018-02-10T00:20:11.184Z,101020.64
2018-02-10T00:22:39.569Z,101028.47
2018-02-10T00:25:07.932Z,101024.13
2018-02-10T00:27:37.064Z,101024.92
2018-02-10T00:30:06.206Z,101028.77
2018-02-10T00:32:34.532Z,101032.95
2018-02-10T00:35:04.096Z,101032.30
2018-02-10T00:37:32.488Z,101029.38
2018-02-10T00:40:00.820Z,101036.42
2018-02-10T00:42:29.191Z,101034.59
2018-02-10T00:44:57.551Z,101032.67
2018-02-10T00:47:26.657Z,101031.31
2018-02-10T00:49:55.000Z,101036.78
2018-02-10T00:52:23.338Z,101034.39
2018-02-10T00:54:51.716Z,101028.89
2018-02-10T00:57:20.044Z,101028.48
2018-02-10T00:59:49.227Z,101033.80
2018-02-10T01:02:17.611Z,101038.30
2018-02-10T01:04:45.961Z,101035.55
2018-02-10T01:07:14.310Z,101038.92
2018-02-10T01:09:42.680Z,101035.89
2018-02-10T01:12:11.008Z,101032.09
2018-02-10T01:14:39.378Z,101026.11
2018-02-10T01:17:07.695Z,101033.08
2018-02-10T01:19:36.806Z,101036.92
2018-02-10T01:22:05.923Z,101025.56
2018-02-10T01:24:34.250Z,101025.73
2018-02-10T01:27:02.617Z,101019.53
2018-02-10T01:29:30.938Z,101021.74
2018-02-10T01:31:59.312Z,101023.70
2018-02-10T01:34:27.640Z,101018.11
2018-02-10T01:36:56.011Z,101017.66
2018-02-10T01:39:24.334Z,101016.89
2018-02-10T01:41:52.663Z,101025.16
2018-02-10T01:44:21.028Z,101032.20
2018-02-10T01:46:49.342Z,101025.38
2018-02-10T01:49:17.711Z,101024.45
2018-02-10T01:51:46.035Z,101025.33
2018-02-10T01:54:14.402Z,101026.34
2018-02-10T01:56:43.517Z,101028.59
2018-02-10T01:59:11.875Z,101030.57
2018-02-10T02:01:40.977Z,101029.52
2018-02-10T02:04:09.347Z,101028.09
2018-02-10T02:06:38.436Z,101033.67
2018-02-10T02:09:06.789Z,101028.80
2018-02-10T02:11:35.157Z,101031.10
2018-02-10T02:14:03.485Z,101027.12
2018-02-10T02:16:31.857Z,101032.59
2018-02-10T02:19:00.188Z,101033.39
2018-02-10T02:21:28.553Z,101036.81
2018-02-10T02:23:57.059Z,101032.70
2018-02-10T02:26:26.174Z,101033.59
2018-02-10T02:28:54.554Z,101035.30
2018-02-10T02:31:22.878Z,101029.97
2018-02-10T02:33:51.205Z,101026.21
2018-02-10T02:36:19.577Z,101031.02
2018-02-10T02:38:48.711Z,101024.41
2018-02-10T02:41:17.040Z,101022.48
2018-02-10T02:43:45.405Z,101024.11
2018-02-10T02:46:13.742Z,101020.02
2018-02-10T02:48:42.065Z,101019.10
2018-02-10T02:51:10.426Z,101020.31
2018-02-10T02:53:38.736Z,101036.55
2018-02-10T02:56:07.101Z,101023.80
2018-02-10T02:58:35.509Z,101028.91
2018-02-10T03:01:04.602Z,101022.36
2018-02-10T03:03:33.726Z,101026.14
2018-02-10T03:06:02.114Z,101019.80
2018-02-10T03:08:30.472Z,101015.20
2018-02-10T03:10:58.834Z,101018.74
2018-02-10T03:13:27.916Z,101019.39
2018-02-10T03:15:57.044Z,101022.33
2018-02-10T03:18:25.409Z,101016.69
2018-02-10T03:20:54.532Z,101020.69
2018-02-10T03:23:22.862Z,101017.97
2018-02-10T03:25:51.958Z,101022.52
2018-02-10T03:28:20.300Z,101023.50
2018-02-10T03:30:48.643Z,101026.13
2018-02-10T03:33:17.000Z,101026.31
2018-02-10T03:35:46.098Z,101016.64
2018-02-10T03:38:15.226Z,101029.84
2018-02-10T03:40:43.606Z,101030.84
2018-02-10T03:43:11.928Z,101026.47
2018-02-10T03:45:41.041Z,101034.69
2018-02-10T03:48:10.174Z,101036.30
2018-02-10T03:50:38.513Z,101031.77
2018-02-10T03:53:07.635Z,101039.67
2018-02-10T03:55:35.990Z,101039.70
2018-02-10T03:58:05.121Z,101038.71
2018-02-10T04:00:33.459Z,101034.80
2018-02-10T04:03:02.638Z,101036.94
2018-02-10T04:05:30.981Z,101035.61
2018-02-10T04:07:59.353Z,101038.06
2018-02-10T04:10:27.693Z,101036.66
2018-02-10T04:12:56.028Z,101031.76
2018-02-10T04:15:24.397Z,101033.73
2018-02-10T04:17:52.843Z,101035.39
2018-02-10T04:20:21.192Z,101029.64
2018-02-10T04:22:49.571Z,101025.92
2018-02-10T04:25:17.895Z,101028.06
2018-02-10T04:27:46.233Z,101032.28
2018-02-10T04:30:15.415Z,101039.16
2018-02-10T04:32:43.741Z,101032.66
2018-02-10T04:35:12.081Z,101040.20
2018-02-10T04:37:41.217Z,101037.73
2018-02-10T04:40:09.534Z,101039.84
2018-02-10T04:42:37.901Z,101038.25
2018-02-10T04:45:06.253Z,101036.95
2018-02-10T04:47:34.613Z,101035.55
2018-02-10T04:50:02.941Z,101037.52
2018-02-10T04:52:31.271Z,101039.26
2018-02-10T04:54:59.689Z,101038.53
2018-02-10T04:57:28.016Z,101033.47
2018-02-10T04:59:57.130Z,101033.44
2018-02-10T05:02:25.457Z,101030.81
2018-02-10T05:04:53.821Z,101028.36
2018-02-10T05:07:22.161Z,101032.61
2018-02-10T05:09:50.477Z,101032.17
2018-02-10T05:12:18.846Z,101034.79
2018-02-10T05:14:47.191Z,101032.81
2018-02-10T05:17:15.518Z,101041.13
2018-02-10T05:19:43.870Z,101036.81
2018-02-10T05:22:12.203Z,101033.60
2018-02-10T05:24:41.321Z,101036.80
2018-02-10T05:27:09.663Z,101031.72
2018-02-10T05:29:38.797Z,101028.34
2018-02-10T05:32:07.143Z,101029.60
2018-02-10T05:34:35.505Z,101030.32
2018-02-10T05:37:04.619Z,101041.92
2018-02-10T05:39:32.990Z,101042.77
2018-02-10T05:42:02.126Z,101035.12
2018-02-10T05:44:30.473Z,101039.39
2018-02-10T05:46:58.815Z,101042.08
2018-02-10T05:49:27.164Z,101049.20
2018-02-10T05:51:55.543Z,101043.80
2018-02-10T05:54:23.878Z,101045.62
2018-02-10T05:56:53.010Z,101053.30
2018-02-10T05:59:21.335Z,101051.64
2018-02-10T06:01:50.428Z,101052.00
2018-02-10T06:04:18.813Z,101055.18
2018-02-10T06:06:47.921Z,101055.30
2018-02-10T06:09:17.053Z,101068.84
2018-02-10T06:11:45.429Z,101059.19
2018-02-10T06:14:13.763Z,101068.51
2018-02-10T06:16:42.906Z,101070.93
2018-02-10T06:19:11.252Z,101074.20
2018-02-10T06:21:39.567Z,101074.89
2018-02-10T06:24:07.929Z,101076.89
2018-02-10T06:26:36.305Z,101087.98
2018-02-10T06:29:07.861Z,101075.64
2018-02-10T06:31:36.237Z,101078.03
2018-02-10T06:34:04.595Z,101080.77
2018-02-10T06:36:33.734Z,101079.09
2018-02-10T06:39:02.116Z,101085.41
2018-02-10T06:41:30.426Z,101084.06
2018-02-10T06:43:59.554Z,101081.98
2018-02-10T06:46:27.977Z,101082.96
2018-02-10T06:48:56.431Z,101084.31
2018-02-10T06:51:24.769Z,101081.08
2018-02-10T06:53:53.898Z,101087.39
2018-02-10T06:56:22.217Z,101089.62
2018-02-10T06:58:50.552Z,101088.95
2018-02-10T07:01:18.866Z,101093.11
2018-02-10T07:03:47.249Z,101091.75
2018-02-10T07:06:16.008Z,101093.19
2018-02-10T07:08:44.413Z,101091.91
2018-02-10T07:11:12.768Z,101088.00
2018-02-10T07:13:41.127Z,101090.50
2018-02-10T07:16:09.467Z,101095.59
2018-02-10T07:18:37.789Z,101089.10
2018-02-10T07:21:06.161Z,101087.08
2018-02-10T07:23:34.518Z,101084.03
2018-02-10T07:26:02.879Z,101089.22
2018-02-10T07:28:32.027Z,101092.59
2018-02-10T07:31:01.391Z,101090.03
2018-02-10T07:33:31.264Z,101089.99
2018-02-10T07:35:59.571Z,101096.76
2018-02-10T07:38:28.639Z,101100.12
2018-02-10T07:40:56.983Z,101106.81
2018-02-10T07:43:26.133Z,101111.33
2018-02-10T07:45:55.216Z,101116.41
2018-02-10T07:48:23.890Z,101110.24
2018-02-10T07:50:52.252Z,101114.20
2018-02-10T07:53:20.636Z,101111.97
2018-02-10T07:55:49.061Z,101110.19
2018-02-10T07:58:18.159Z,101105.69
2018-02-10T08:00:46.474Z,101106.85
2018-02-10T08:03:14.840Z,101113.83
2018-02-10T08:05:44.646Z,101114.30
2018-02-10T08:08:12.996Z,101114.50
2018-02-10T08:10:42.094Z,101118.98
2018-02-10T08:13:11.226Z,101113.91
2018-02-10T08:15:39.548Z,101116.91
2018-02-10T08:18:07.904Z,101117.38
2018-02-10T08:20:36.264Z,101112.34
2018-02-10T08:23:04.626Z,101110.09
2018-02-10T08:25:32.988Z,101108.23
2018-02-10T08:28:01.363Z,101108.70
2018-02-10T08:30:29.760Z,101108.63
2018-02-10T08:32:58.923Z,101112.13
2018-02-10T08:35:28.024Z,101112.87
2018-02-10T08:37:56.357Z,101115.63
2018-02-10T08:40:24.742Z,101118.92
2018-02-10T08:42:53.056Z,101120.25
2018-02-10T08:45:22.174Z,101118.92
2018-02-10T08:47:50.497Z,101117.27
2018-02-10T08:50:18.856Z,101121.73
2018-02-10T08:52:47.242Z,101118.91
2018-02-10T08:55:15.628Z,101121.63
2018-02-10T08:57:43.996Z,101120.53
2018-02-10T09:00:12.351Z,101119.62
2018-02-10T09:02:40.686Z,101125.89
2018-02-10T09:05:09.770Z,101123.38
2018-02-10T09:07:38.887Z,101120.96
2018-02-10T09:10:07.272Z,101122.03
2018-02-10T09:12:35.611Z,101123.03
2018-02-10T09:15:03.957Z,101124.46
2018-02-10T09:17:32.290Z,101127.27
2018-02-10T09:20:01.401Z,101127.17
2018-02-10T09:22:29.753Z,101124.80
2018-02-10T09:24:58.840Z,101124.11
2018-02-10T09:27:27.188Z,101119.89
2018-02-10T09:29:55.511Z,101116.67
2018-02-10T09:32:24.587Z,101116.33
2018-02-10T09:34:52.906Z,101123.16
2018-02-10T09:37:21.265Z,101115.75
2018-02-10T09:39:50.356Z,101110.20
2018-02-10T09:42:19.457Z,101106.43
2018-02-10T09:44:48.591Z,101099.68
2018-02-10T09:47:17.702Z,101098.67
2018-02-10T09:49:46.059Z,101099.43
2018-02-10T09:52:14.381Z,101098.38
2018-02-10T09:54:42.762Z,101094.09
2018-02-10T09:57:11.161Z,101095.95
2018-02-10T09:59:40.237Z,101102.80
2018-02-10T10:02:08.579Z,101100.01
2018-02-10T10:04:36.940Z,101099.17
2018-02-10T10:07:05.309Z,101097.17
2018-02-10T10:09:33.638Z,101102.92
2018-02-10T10:12:02.000Z,101093.16
2018-02-10T10:14:30.301Z,101090.38
2018-02-10T10:16:58.679Z,101098.47
2018-02-10T10:19:26.999Z,101103.27
2018-02-10T10:21:55.357Z,101095.52
2018-02-10T10:24:24.477Z,101091.71
2018-02-10T10:26:52.793Z,101092.89
2018-02-10T10:29:21.105Z,101091.09
2018-02-10T10:31:50.235Z,101089.00
2018-02-10T10:34:18.543Z,101089.40
2018-02-10T10:36:46.874Z,101090.00
2018-02-10T10:39:15.276Z,101084.30
2018-02-10T10:41:43.600Z,101082.18
2018-02-10T10:44:12.713Z,101078.59
2018-02-10T10:46:41.024Z,101080.69
2018-02-10T10:49:09.367Z,101070.72
2018-02-10T10:51:37.683Z,101071.05
2018-02-10T10:54:06.039Z,101061.39
2018-02-10T10:56:34.346Z,101059.48
2018-02-10T10:59:02.718Z,101059.20
2018-02-10T11:01:31.170Z,101057.87
2018-02-10T11:03:59.492Z,101049.16
2018-02-10T11:06:27.811Z,101052.11
2018-02-10T11:08:56.171Z,101053.91
2018-02-10T11:11:25.900Z,101051.94
2018-02-10T11:13:54.272Z,101047.67
2018-02-10T11:16:22.612Z,101048.89
2018-02-10T11:18:50.970Z,101045.38
2018-02-10T11:21:19.277Z,101049.99
2018-02-10T11:23:47.598Z,101050.05
2018-02-10T11:26:15.939Z,101059.28
2018-02-10T11:28:45.032Z,101052.85
2018-02-10T11:31:14.136Z,101051.71
2018-02-10T11:33:42.469Z,101055.81
2018-02-10T11:36:10.824Z,101048.61
2018-02-10T11:38:39.204Z,101043.94
2018-02-10T11:41:07.558Z,101035.34
2018-02-10T11:43:35.885Z,101042.31
2018-02-10T11:46:04.211Z,101039.50
2018-02-10T11:48:32.576Z,101036.92
2018-02-10T11:51:01.656Z,101034.83
2018-02-10T11:53:30.012Z,101030.68
2018-02-10T11:55:58.628Z,101024.46
2018-02-10T11:58:26.961Z,101025.58
2018-02-10T12:00:55.275Z,101014.18
2018-02-10T12:03:23.614Z,101018.33
2018-02-10T12:05:51.946Z,101008.35
2018-02-10T12:08:20.282Z,101005.27
2018-02-10T12:10:48.668Z,100995.81
2018-02-10T12:13:17.013Z,100992.66
2018-02-10T12:15:45.326Z,100988.70
2018-02-10T12:18:13.661Z,100993.58
2018-02-10T12:20:42.546Z,100996.13
2018-02-10T12:23:10.948Z,100993.48
2018-02-10T12:25:39.352Z,100993.22
2018-02-10T12:28:07.682Z,100987.33
2018-02-10T12:30:36.414Z,100982.44
2018-02-10T12:33:05.531Z,100983.94
2018-02-10T12:35:35.402Z,100980.06
2018-02-10T12:38:03.763Z,100963.98
2018-02-10T12:40:32.125Z,100977.91
2018-02-10T12:43:01.220Z,100977.01
2018-02-10T12:45:29.597Z,100979.89
2018-02-10T12:48:00.034Z,100981.94
2018-02-10T12:50:28.376Z,100979.08
2018-02-10T12:52:57.497Z,100980.00
2018-02-10T12:55:25.834Z,100980.47
2018-02-10T12:57:54.209Z,100984.59
2018-02-10T13:00:22.530Z,100980.13
2018-02-10T13:02:50.892Z,100976.30
2018-02-10T13:05:19.978Z,100984.03
2018-02-10T13:07:49.094Z,100978.95
2018-02-10T13:10:17.422Z,100961.75
2018-02-10T13:12:45.779Z,100972.25
2018-02-10T13:15:14.856Z,100976.76
2018-02-10T13:17:44.085Z,100977.50
2018-02-10T13:20:12.423Z,100968.55
2018-02-10T13:22:40.742Z,100969.36
2018-02-10T13:25:09.161Z,100969.75
2018-02-10T13:27:38.275Z,100966.20
2018-02-10T13:30:07.086Z,100959.72
2018-02-10T13:32:35.453Z,100959.66
2018-02-10T13:35:03.789Z,100962.73
2018-02-10T13:37:32.946Z,100952.42
2018-02-10T13:40:02.149Z,100950.92
2018-02-10T13:42:30.505Z,100945.52
2018-02-10T13:44:59.620Z,100948.33
2018-02-10T13:47:28.006Z,100949.20
2018-02-10T13:49:56.346Z,100953.61
2018-02-10T13:52:25.441Z,100941.63
2018-02-10T13:54:53.825Z,100948.56
2018-02-10T13:57:22.161Z,100942.61
2018-02-10T13:59:51.265Z,100940.41
2018-02-10T14:02:20.389Z,100932.47
2018-02-10T14:04:48.733Z,100931.13
2018-02-10T14:07:17.826Z,100937.36
2018-02-10T14:09:46.953Z,100932.82
2018-02-10T14:12:15.339Z,100932.95
2018-02-10T14:14:43.798Z,100932.09
2018-02-10T14:17:12.111Z,100937.05
2018-02-10T14:19:40.473Z,100934.70
2018-02-10T14:22:08.807Z,100932.09
2018-02-10T14:24:37.149Z,100938.66
2018-02-10T14:27:05.516Z,100931.17
2018-02-10T14:29:33.851Z,100925.81
2018-02-10T14:32:02.968Z,100928.17
2018-02-10T14:34:31.310Z,100927.88
2018-02-10T14:36:59.680Z,100925.98
2018-02-10T14:39:28.013Z,100932.72
2018-02-10T14:41:56.341Z,100929.22
2018-02-10T14:44:24.706Z,100926.52
2018-02-10T14:46:53.016Z,100924.94
2018-02-10T14:49:21.335Z,100927.61
2018-02-10T14:51:49.693Z,100926.11
2018-02-10T14:54:18.020Z,100929.03
2018-02-10T14:56:46.420Z,100927.94
2018-02-10T14:59:15.512Z,100932.65
2018-02-10T15:01:44.618Z,100925.63
2018-02-10T15:04:13.811Z,100933.59
2018-02-10T15:06:42.936Z,100929.45
2018-02-10T15:09:11.255Z,100922.44
2018-02-10T15:11:39.573Z,100916.41
2018-02-10T15:14:07.919Z,100918.19
2018-02-10T15:16:36.237Z,100919.34
2018-02-10T15:19:05.343Z,100914.06
2018-02-10T15:21:34.558Z,100918.52
2018-02-10T15:24:02.924Z,100912.95
2018-02-10T15:26:31.272Z,100917.30
2018-02-10T15:28:59.628Z,100923.83
2018-02-10T15:31:45.644Z,100923.01
2018-02-10T15:34:31.665Z,100923.70
2018-02-10T15:36:59.975Z,100917.80
2018-02-10T15:39:28.981Z,100914.41
2018-02-10T15:41:58.076Z,100921.56
2018-02-10T15:44:26.429Z,100912.27
2018-02-10T15:46:54.852Z,100916.03
2018-02-10T15:49:23.309Z,100913.42
2018-02-10T15:51:51.632Z,100922.70
2018-02-10T15:54:20.531Z,100916.58
2018-02-10T15:56:49.636Z,100929.94
2018-02-10T15:59:17.954Z,100931.56
2018-02-10T16:01:46.287Z,100929.28
2018-02-10T16:04:14.647Z,100933.61
2018-02-10T16:06:42.988Z,100932.74
2018-02-10T16:09:12.087Z,100936.14
2018-02-10T16:11:41.764Z,100928.73
2018-02-10T16:14:10.140Z,100927.03
2018-02-10T16:16:38.518Z,100929.25
2018-02-10T16:19:06.988Z,100923.06
2018-02-10T16:21:36.688Z,100920.81
2018-02-10T16:24:05.062Z,100916.52
2018-02-10T16:26:33.480Z,100915.63
2018-02-10T16:29:01.815Z,100912.95
2018-02-10T16:31:30.180Z,100912.59
2018-02-10T16:33:59.319Z,100906.88
2018-02-10T16:36:27.641Z,100905.53
2018-02-10T16:38:56.080Z,100910.73
2018-02-10T16:41:26.653Z,100921.83
2018-02-10T16:43:55.001Z,100907.77
2018-02-10T16:46:23.407Z,100907.89
2018-02-10T16:48:51.744Z,100910.54
2018-02-10T16:51:22.149Z,100902.70
2018-02-10T16:53:50.467Z,100895.71
2018-02-10T16:56:20.112Z,100898.28
2018-02-10T16:58:49.119Z,100893.47
2018-02-10T17:01:17.472Z,100897.77
2018-02-10T17:03:47.544Z,100900.27
2018-02-10T17:06:16.972Z,100900.07
2018-02-10T17:08:45.382Z,100898.75
2018-02-10T17:11:14.692Z,100896.89
2018-02-10T17:13:43.024Z,100894.47
2018-02-10T17:16:12.139Z,100895.58
2018-02-10T17:18:40.440Z,100897.18
2018-02-10T17:21:09.440Z,100898.01
2018-02-10T17:23:37.762Z,100894.52
2018-02-10T17:26:06.136Z,100896.27
2018-02-10T17:28:35.216Z,100901.02
2018-02-10T17:31:04.144Z,100897.05
2018-02-10T17:33:34.141Z,100896.95
2018-02-10T17:36:04.011Z,100898.16
2018-02-10T17:38:33.282Z,100900.63
2018-02-10T17:41:01.658Z,100902.68
2018-02-10T17:43:30.808Z,100901.34
2018-02-10T17:45:59.441Z,100900.86
2018-02-10T17:48:29.042Z,100899.08
2018-02-10T17:50:57.420Z,100901.32
2018-02-10T17:53:25.786Z,100895.30
2018-02-10T17:55:54.166Z,100896.29
2018-02-10T17:58:24.750Z,100896.36
2018-02-10T18:00:53.110Z,100898.55
2018-02-10T18:03:21.456Z,100888.94
2018-02-10T18:05:50.609Z,100890.14
2018-02-10T18:08:18.955Z,100893.59
2018-02-10T18:10:48.000Z,100890.16
2018-02-10T18:13:17.234Z,100892.73
2018-02-10T18:15:45.595Z,100881.47
2018-02-10T18:18:14.704Z,100887.64
2018-02-10T18:20:43.821Z,100891.57
2018-02-10T18:23:12.169Z,100884.68
2018-02-10T18:25:40.600Z,100880.80
2018-02-10T18:28:08.920Z,100880.29
2018-02-10T18:30:38.034Z,100870.34
2018-02-10T18:33:06.401Z,100878.70
2018-02-10T18:35:34.792Z,100870.52
2018-02-10T18:38:03.172Z,100865.86
2018-02-10T18:40:32.324Z,100865.41
2018-02-10T18:43:00.718Z,100862.32
2018-02-10T18:45:29.813Z,100853.27
2018-02-10T18:47:59.014Z,100856.17
2018-02-10T18:50:28.110Z,100860.83
2018-02-10T18:52:56.505Z,100856.42
2018-02-10T18:55:25.813Z,100852.42
2018-02-10T18:57:55.289Z,100854.57
2018-02-10T19:00:25.455Z,100853.80
2018-02-10T19:02:53.824Z,100852.10
2018-02-10T19:05:22.222Z,100851.39
2018-02-10T19:07:51.196Z,100856.16
2018-02-10T19:10:19.543Z,100851.33
2018-02-10T19:12:49.707Z,100850.92
2018-02-10T19:15:19.761Z,100851.70
2018-02-10T19:17:48.889Z,100846.92
2018-02-10T19:20:17.240Z,100841.24
2018-02-10T19:22:46.884Z,100846.05
2018-02-10T19:25:16.763Z,100835.12
2018-02-10T19:27:47.721Z,100827.80
2018-02-10T19:30:16.867Z,100827.39
2018-02-10T19:32:46.424Z,100824.39
2018-02-10T19:35:15.913Z,100828.72
2018-02-10T19:37:45.001Z,100823.08
2018-02-10T19:40:14.131Z,100822.20
2018-02-10T19:42:42.643Z,100821.39
2018-02-10T19:45:11.945Z,100818.67
2018-02-10T19:47:40.272Z,100816.54
2018-02-10T19:50:09.411Z,100821.47
2018-02-10T19:52:37.774Z,100818.55
2018-02-10T19:55:06.869Z,100809.46
2018-02-10T19:57:36.617Z,100810.11
2018-02-10T20:00:05.817Z,100813.59
2018-02-10T20:02:34.194Z,100814.96
2018-02-10T20:05:02.562Z,100805.78
2018-02-10T20:07:31.210Z,100805.86
2018-02-10T20:10:00.403Z,100807.63
2018-02-10T20:12:28.789Z,100804.17
2018-02-10T20:14:57.160Z,100795.92
2018-02-10T20:17:25.522Z,100798.53
2018-02-10T20:19:54.651Z,100793.75
2018-02-10T20:22:23.315Z,100791.55
2018-02-10T20:24:51.662Z,100790.41
2018-02-10T20:27:21.602Z,100796.85
2018-02-10T20:29:51.738Z,100778.36
2018-02-10T20:32:20.966Z,100790.69
2018-02-10T20:34:49.319Z,100786.41
2018-02-10T20:37:17.693Z,100784.75
2018-02-10T20:39:46.019Z,100782.09
2018-02-10T20:42:14.388Z,100778.99
2018-02-10T20:44:43.507Z,100780.41
2018-02-10T20:47:13.314Z,100779.52
2018-02-10T20:49:42.424Z,100778.63
2018-02-10T20:52:10.813Z,100776.87
2018-02-10T20:54:39.231Z,100777.31
2018-02-10T20:57:07.598Z,100769.44
2018-02-10T20:59:36.654Z,100765.53
2018-02-10T21:02:04.986Z,100762.94
2018-02-10T21:04:34.543Z,100766.03
2018-02-10T21:07:02.879Z,100768.58
2018-02-10T21:09:31.311Z,100771.12
2018-02-10T21:11:59.737Z,100759.34
2018-02-10T21:14:28.771Z,100754.52
2018-02-10T21:16:57.088Z,100759.83
2018-02-10T21:19:25.476Z,100754.14
2018-02-10T21:21:54.620Z,100756.28
2018-02-10T21:24:23.033Z,100751.05
2018-02-10T21:26:51.358Z,100751.06
2018-02-10T21:29:21.873Z,100745.40
2018-02-10T21:31:50.181Z,100740.12
2018-02-10T21:34:18.539Z,100738.91
2018-02-10T21:36:47.702Z,100737.84
2018-02-10T21:39:16.113Z,100738.61
2018-02-10T21:41:45.262Z,100734.61
2018-02-10T21:44:13.689Z,100733.53
2018-02-10T21:46:42.835Z,100732.88
2018-02-10T21:49:11.678Z,100733.62
2018-02-10T21:51:40.838Z,100724.94
2018-02-10T21:54:09.201Z,100717.47
2018-02-10T21:56:37.590Z,100717.95
2018-02-10T21:59:05.917Z,100716.67
2018-02-10T22:01:34.281Z,100713.70
2018-02-10T22:04:03.391Z,100709.45
2018-02-10T22:06:32.519Z,100705.16
2018-02-10T22:09:00.866Z,100708.70
2018-02-10T22:11:30.010Z,100707.44
2018-02-10T22:13:58.397Z,100701.77
2018-02-10T22:16:26.821Z,100698.34
2018-02-10T22:18:55.951Z,100701.41
2018-02-10T22:21:25.061Z,100686.17
2018-02-10T22:23:53.409Z,100694.59
2018-02-10T22:26:21.821Z,100695.93
2018-02-10T22:28:50.178Z,100692.86
2018-02-10T22:31:18.500Z,100691.98
2018-02-10T22:33:47.690Z,100681.17
2018-02-10T22:36:16.946Z,100687.36
2018-02-10T22:38:46.110Z,100680.42
2018-02-10T22:41:14.429Z,100663.38
2018-02-10T22:43:42.893Z,100677.02
2018-02-10T22:46:11.253Z,100669.61
2018-02-10T22:48:40.342Z,100671.35
2018-02-10T22:51:10.661Z,100668.84
2018-02-10T22:53:39.752Z,100660.53
2018-02-10T22:56:09.771Z,100654.45
2018-02-10T22:58:38.146Z,100657.03
2018-02-10T23:01:12.747Z,100653.27
2018-02-10T23:03:41.076Z,100646.84
2018-02-10T23:06:09.423Z,100643.75
2018-02-10T23:08:38.516Z,100640.73
2018-02-10T23:11:07.622Z,100635.07
2018-02-10T23:13:36.735Z,100636.36
2018-02-10T23:16:05.061Z,100630.77
2018-02-10T23:18:33.380Z,100629.90
2018-02-10T23:21:01.735Z,100626.47
2018-02-10T23:23:30.090Z,100625.09
2018-02-10T23:25:59.202Z,100615.55
2018-02-10T23:28:28.552Z,100616.39
2018-02-10T23:30:56.901Z,100610.33
2018-02-10T23:33:25.980Z,100611.23
2018-02-10T23:35:54.328Z,100603.35
2018-02-10T23:38:22.646Z,100604.67
2018-02-10T23:40:51.016Z,100602.06
2018-02-10T23:43:20.114Z,100597.30
2018-02-10T23:45:49.236Z,100590.30
2018-02-10T23:48:17.554Z,100599.86
2018-02-10T23:50:46.266Z,100592.05
2018-02-10T23:53:14.612Z,100584.63
2018-02-10T23:55:42.924Z,100588.98
2018-02-10T23:58:11.300Z,100581.58
